createdAt,value
2022-11-12T00:00:03.482Z,6.52
2022-11-12T00:02:48.343Z,6.36
2022-11-12T00:05:33.638Z,6.42
2022-11-12T00:08:18.468Z,6.38
2022-11-12T00:11:04.911Z,6.35
2022-11-12T00:13:49.866Z,6.29
2022-11-12T00:16:34.636Z,6.27
2022-11-12T00:19:19.479Z,6.31
2022-11-12T00:22:04.293Z,6.28
2022-11-12T00:24:49.118Z,6.29
2022-11-12T00:27:34.321Z,6.33
2022-11-12T00:30:19.500Z,6.33
2022-11-12T00:33:05.328Z,6.30
2022-11-12T00:35:50.148Z,6.18
2022-11-12T00:38:34.965Z,6.23
2022-11-12T00:41:19.742Z,6.19
2022-11-12T00:44:04.280Z,6.01
2022-11-12T00:46:48.705Z,5.99
2022-11-12T00:49:33.625Z,6.12
2022-11-12T00:52:18.112Z,6.05
2022-11-12T00:55:03.242Z,6.15
2022-11-12T00:57:48.199Z,6.13
2022-11-12T01:00:33.087Z,6.26
2022-11-12T01:03:18.060Z,6.33
2022-11-12T01:06:23.111Z,6.30
2022-11-12T01:09:08.800Z,6.47
2022-11-12T01:11:53.675Z,6.49
2022-11-12T01:14:38.315Z,6.50
2022-11-12T01:17:23.022Z,6.49
2022-11-12T01:20:07.994Z,6.51
2022-11-12T01:22:53.043Z,6.55
2022-11-12T01:25:38.323Z,6.57
2022-11-12T01:28:23.524Z,6.62
2022-11-12T01:31:14.402Z,6.54
2022-11-12T01:34:01.266Z,6.66
2022-11-12T01:36:45.805Z,6.51
2022-11-12T01:39:30.658Z,6.70
2022-11-12T01:42:15.271Z,6.67
2022-11-12T01:45:00.243Z,6.77
2022-11-12T01:47:47.083Z,6.80
2022-11-12T01:50:34.276Z,6.83
2022-11-12T01:53:20.138Z,6.89
2022-11-12T01:56:05.997Z,6.85
2022-11-12T01:58:56.440Z,6.93
2022-11-12T02:01:41.310Z,6.97
2022-11-12T02:04:26.926Z,6.98
2022-11-12T02:07:11.940Z,7.00
2022-11-12T02:09:58.439Z,7.03
2022-11-12T02:13:02.768Z,7.09
2022-11-12T02:15:47.547Z,7.12
2022-11-12T02:18:32.451Z,7.12
2022-11-12T02:21:21.714Z,7.13
2022-11-12T02:24:12.515Z,7.08
2022-11-12T02:26:57.259Z,7.20
2022-11-12T02:29:46.390Z,7.09
2022-11-12T02:32:31.581Z,7.24
2022-11-12T02:35:16.417Z,7.26
2022-11-12T02:38:00.963Z,7.30
2022-11-12T02:40:45.620Z,7.32
2022-11-12T02:43:30.248Z,7.35
2022-11-12T02:46:14.921Z,7.39
2022-11-12T02:48:59.830Z,7.41
2022-11-12T02:51:44.438Z,7.44
2022-11-12T02:54:29.326Z,7.45
2022-11-12T02:57:13.903Z,7.45
2022-11-12T02:59:58.552Z,7.45
2022-11-12T03:02:43.163Z,7.43
2022-11-12T03:05:33.167Z,7.40
2022-11-12T03:08:17.889Z,7.42
2022-11-12T03:11:13.630Z,7.41
2022-11-12T03:13:58.433Z,7.36
2022-11-12T03:16:43.442Z,7.36
2022-11-12T03:19:28.303Z,7.27
2022-11-12T03:22:12.976Z,7.36
2022-11-12T03:24:57.739Z,7.36
2022-11-12T03:27:42.270Z,7.36
2022-11-12T03:30:32.462Z,7.37
2022-11-12T03:33:17.344Z,7.37
2022-11-12T03:36:01.736Z,7.40
2022-11-12T03:38:46.900Z,7.41
2022-11-12T03:41:31.434Z,7.24
2022-11-12T03:44:16.028Z,7.36
2022-11-12T03:47:00.927Z,7.34
2022-11-12T03:49:45.876Z,7.31
2022-11-12T03:52:30.278Z,7.28
2022-11-12T03:55:16.785Z,7.20
2022-11-12T03:58:01.330Z,7.26
2022-11-12T04:00:46.125Z,7.25
2022-11-12T04:03:30.930Z,7.26
2022-11-12T04:06:34.410Z,7.24
2022-11-12T04:09:19.225Z,7.09
2022-11-12T04:12:23.773Z,7.21
2022-11-12T04:15:08.557Z,7.24
2022-11-12T04:18:11.798Z,7.24
2022-11-12T04:21:15.387Z,7.25
2022-11-12T04:24:00.145Z,7.26
2022-11-12T04:26:44.805Z,7.24
2022-11-12T04:29:48.043Z,7.25
2022-11-12T04:32:36.057Z,7.25
2022-11-12T04:35:22.052Z,7.25
2022-11-12T04:38:06.631Z,7.30
2022-11-12T04:41:09.834Z,7.33
2022-11-12T04:44:13.023Z,7.35
2022-11-12T04:46:57.888Z,7.23
2022-11-12T04:49:42.726Z,7.24
2022-11-12T04:52:28.571Z,7.16
2022-11-12T04:55:13.298Z,7.15
2022-11-12T04:58:00.816Z,7.14
2022-11-12T05:00:46.482Z,7.00
2022-11-12T05:03:31.202Z,7.14
2022-11-12T05:06:34.700Z,7.14
2022-11-12T05:09:20.809Z,7.16
2022-11-12T05:12:05.859Z,7.07
2022-11-12T05:14:50.477Z,7.22
2022-11-12T05:17:35.079Z,7.19
2022-11-12T05:20:20.030Z,7.23
2022-11-12T05:23:07.390Z,7.24
2022-11-12T05:25:52.403Z,7.26
2022-11-12T05:28:36.875Z,7.28
2022-11-12T05:31:21.437Z,7.31
2022-11-12T05:34:06.205Z,7.24
2022-11-12T05:36:51.603Z,7.30
2022-11-12T05:39:36.219Z,7.25
2022-11-12T05:42:21.033Z,7.35
2022-11-12T05:45:06.688Z,7.41
2022-11-12T05:47:51.546Z,7.46
2022-11-12T05:50:45.450Z,7.45
2022-11-12T05:53:42.194Z,7.45
2022-11-12T05:56:26.914Z,7.47
2022-11-12T05:59:13.418Z,7.48
2022-11-12T06:01:58.013Z,7.52
2022-11-12T06:04:42.538Z,7.57
2022-11-12T06:07:27.244Z,7.58
2022-11-12T06:10:16.019Z,7.55
2022-11-12T06:13:04.053Z,7.56
2022-11-12T06:15:48.718Z,7.60
2022-11-12T06:18:33.199Z,7.62
2022-11-12T06:21:22.548Z,7.70
2022-11-12T06:24:07.664Z,7.75
2022-11-12T06:26:52.260Z,7.85
2022-11-12T06:29:38.547Z,8.02
2022-11-12T06:32:24.173Z,8.13
2022-11-12T06:35:09.098Z,8.21
2022-11-12T06:37:55.253Z,8.40
2022-11-12T06:40:40.398Z,8.60
2022-11-12T06:43:26.260Z,8.61
2022-11-12T06:46:15.918Z,8.64
2022-11-12T06:49:00.540Z,8.60
2022-11-12T06:51:45.734Z,8.71
2022-11-12T06:54:30.194Z,8.71
2022-11-12T06:57:15.131Z,8.78
2022-11-12T06:59:59.804Z,8.86
2022-11-12T07:02:44.701Z,8.86
2022-11-12T07:05:31.202Z,9.01
2022-11-12T07:08:15.750Z,9.01
2022-11-12T07:11:00.549Z,9.15
2022-11-12T07:13:45.623Z,9.20
2022-11-12T07:16:30.400Z,9.28
2022-11-12T07:19:15.185Z,9.38
2022-11-12T07:21:59.865Z,9.55
2022-11-12T07:24:44.482Z,9.66
2022-11-12T07:27:30.729Z,9.84
2022-11-12T07:30:16.308Z,9.92
2022-11-12T07:33:01.106Z,10.09
2022-11-12T07:35:45.877Z,10.17
2022-11-12T07:38:32.347Z,10.31
2022-11-12T07:41:19.211Z,10.43
2022-11-12T07:44:03.996Z,10.60
2022-11-12T07:46:48.777Z,10.46
2022-11-12T07:49:33.387Z,10.68
2022-11-12T07:52:17.982Z,10.67
2022-11-12T07:55:03.133Z,10.77
2022-11-12T07:57:47.986Z,10.81
2022-11-12T08:00:32.947Z,11.01
2022-11-12T08:03:18.191Z,11.37
2022-11-12T08:06:03.510Z,11.73
2022-11-12T08:08:48.378Z,12.11
2022-11-12T08:11:33.673Z,12.28
2022-11-12T08:14:18.942Z,12.65
2022-11-12T08:17:03.431Z,12.76
2022-11-12T08:19:48.268Z,12.51
2022-11-12T08:22:33.218Z,12.65
2022-11-12T08:25:19.001Z,12.47
2022-11-12T08:28:04.039Z,12.63
2022-11-12T08:30:48.921Z,12.80
2022-11-12T08:33:33.807Z,12.81
2022-11-12T08:36:18.627Z,13.16
2022-11-12T08:39:03.695Z,13.29
2022-11-12T08:41:48.361Z,13.77
2022-11-12T08:44:33.403Z,14.35
2022-11-12T08:47:17.956Z,14.88
2022-11-12T08:50:02.758Z,15.96
2022-11-12T08:52:47.444Z,16.87
2022-11-12T08:55:33.414Z,17.89
2022-11-12T08:58:18.204Z,18.44
2022-11-12T09:01:07.019Z,18.99
2022-11-12T09:03:51.600Z,19.12
2022-11-12T09:06:36.337Z,19.51
2022-11-12T09:09:21.130Z,19.77
2022-11-12T09:12:13.679Z,20.02
2022-11-12T09:15:30.762Z,20.23
2022-11-12T09:18:10.499Z,20.21
2022-11-12T09:21:03.479Z,20.48
2022-11-12T09:23:48.344Z,20.95
2022-11-12T09:26:33.225Z,21.39
2022-11-12T09:29:17.842Z,21.65
2022-11-12T09:32:02.698Z,22.35
2022-11-12T09:34:47.393Z,22.83
2022-11-12T09:37:31.955Z,22.50
2022-11-12T09:40:18.678Z,22.75
2022-11-12T09:43:11.301Z,22.62
2022-11-12T09:46:21.431Z,22.16
2022-11-12T09:49:07.998Z,21.84
2022-11-12T09:51:59.298Z,21.85
2022-11-12T09:54:44.530Z,21.88
2022-11-12T09:57:29.198Z,21.96
2022-11-12T10:00:20.918Z,21.64
2022-11-12T10:03:15.042Z,22.73
2022-11-12T10:06:19.312Z,23.06
2022-11-12T10:09:04.229Z,23.45
2022-11-12T10:12:13.731Z,23.27
2022-11-12T10:15:51.320Z,23.10
2022-11-12T10:18:53.378Z,21.92
2022-11-12T10:21:46.601Z,21.68
2022-11-12T10:24:36.450Z,22.42
2022-11-12T10:27:26.092Z,22.52
2022-11-12T10:30:17.554Z,22.85
2022-11-12T10:33:03.170Z,22.93
2022-11-12T10:35:47.981Z,23.00
2022-11-12T10:38:33.238Z,22.72
2022-11-12T10:41:20.757Z,22.86
2022-11-12T10:44:07.033Z,22.99
2022-11-12T10:46:51.938Z,22.97
2022-11-12T10:49:36.469Z,23.01
2022-11-12T10:52:24.060Z,22.88
2022-11-12T10:55:17.946Z,22.66
2022-11-12T10:58:05.427Z,22.51
2022-11-12T11:00:57.419Z,22.00
2022-11-12T11:03:47.776Z,20.96
2022-11-12T11:06:33.215Z,20.56
2022-11-12T11:09:20.552Z,20.31
2022-11-12T11:12:17.326Z,19.75
2022-11-12T11:15:21.067Z,19.29
2022-11-12T11:18:10.132Z,18.72
2022-11-12T11:21:09.035Z,18.71
2022-11-12T11:24:32.111Z,18.75
2022-11-12T11:27:30.525Z,18.56
2022-11-12T11:30:22.155Z,18.53
2022-11-12T11:33:24.235Z,18.84
2022-11-12T11:36:50.301Z,18.82
2022-11-12T11:40:08.514Z,18.98
2022-11-12T11:43:09.468Z,19.10
2022-11-12T11:45:57.013Z,18.66
2022-11-12T11:49:02.011Z,18.25
2022-11-12T11:52:07.838Z,18.12
2022-11-12T11:55:17.977Z,17.59
2022-11-12T11:58:11.970Z,17.22
2022-11-12T12:01:04.527Z,16.56
2022-11-12T12:03:58.447Z,16.57
2022-11-12T12:06:50.237Z,16.80
2022-11-12T12:09:59.415Z,16.51
2022-11-12T12:13:02.003Z,16.35
2022-11-12T12:16:19.862Z,15.90
2022-11-12T12:19:12.552Z,15.68
2022-11-12T12:21:59.843Z,15.60
2022-11-12T12:24:47.176Z,15.45
2022-11-12T12:27:34.876Z,15.52
2022-11-12T12:30:24.734Z,15.32
2022-11-12T12:33:44.190Z,15.33
2022-11-12T12:36:37.529Z,15.26
2022-11-12T12:39:30.973Z,15.16
2022-11-12T12:42:26.878Z,14.99
2022-11-12T12:45:35.597Z,14.89
2022-11-12T12:48:25.964Z,14.88
2022-11-12T12:51:11.295Z,15.21
2022-11-12T12:53:56.361Z,15.49
2022-11-12T12:56:45.765Z,15.44
2022-11-12T12:59:30.660Z,15.83
2022-11-12T13:02:23.024Z,15.63
2022-11-12T13:05:26.873Z,15.43
2022-11-12T13:08:20.058Z,15.07
2022-11-12T13:11:04.676Z,14.79
2022-11-12T13:13:49.576Z,14.60
2022-11-12T13:16:54.278Z,14.45
2022-11-12T13:19:58.273Z,14.40
2022-11-12T13:22:42.635Z,14.28
2022-11-12T13:25:30.005Z,14.24
2022-11-12T13:28:14.773Z,13.96
2022-11-12T13:31:01.358Z,13.92
2022-11-12T13:33:46.496Z,13.79
2022-11-12T13:36:31.264Z,13.63
2022-11-12T13:39:18.458Z,13.52
2022-11-12T13:42:32.971Z,13.36
2022-11-12T13:45:19.828Z,13.24
2022-11-12T13:48:08.997Z,13.10
2022-11-12T13:50:59.534Z,13.03
2022-11-12T13:53:44.250Z,12.96
2022-11-12T13:56:32.654Z,12.88
2022-11-12T13:59:20.159Z,12.78
2022-11-12T14:02:19.469Z,12.58
2022-11-12T14:05:10.638Z,12.55
2022-11-12T14:08:10.127Z,12.44
2022-11-12T14:11:16.578Z,12.30
2022-11-12T14:14:38.282Z,12.25
2022-11-12T14:17:22.694Z,12.14
2022-11-12T14:20:21.305Z,12.02
2022-11-12T14:23:23.127Z,11.91
2022-11-12T14:26:11.697Z,11.81
2022-11-12T14:28:56.717Z,11.60
2022-11-12T14:31:41.530Z,11.59
2022-11-12T14:34:33.638Z,11.53
2022-11-12T14:37:39.875Z,11.42
2022-11-12T14:40:29.199Z,11.34
2022-11-12T14:43:30.973Z,11.24
2022-11-12T14:46:26.862Z,11.14
2022-11-12T14:49:28.349Z,10.88
2022-11-12T14:52:17.108Z,10.88
2022-11-12T14:55:11.070Z,10.79
2022-11-12T14:57:58.751Z,10.71
2022-11-12T15:00:46.324Z,10.64
2022-11-12T15:03:32.592Z,10.63
2022-11-12T15:06:33.931Z,10.45
2022-11-12T15:09:21.669Z,10.31
2022-11-12T15:12:12.646Z,10.32
2022-11-12T15:15:22.169Z,10.28
2022-11-12T15:18:18.876Z,10.19
2022-11-12T15:21:09.376Z,10.10
2022-11-12T15:24:07.144Z,10.05
2022-11-12T15:26:53.206Z,9.93
2022-11-12T15:29:37.825Z,9.91
2022-11-12T15:32:22.331Z,9.87
2022-11-12T15:35:32.634Z,9.78
2022-11-12T15:38:31.661Z,9.71
2022-11-12T15:41:25.381Z,9.64
2022-11-12T15:44:10.548Z,9.56
2022-11-12T15:46:55.314Z,9.49
2022-11-12T15:49:49.962Z,9.45
2022-11-12T15:52:34.661Z,9.35
2022-11-12T15:55:19.132Z,9.31
2022-11-12T15:58:04.729Z,9.27
2022-11-12T16:00:49.576Z,9.21
2022-11-12T16:03:34.438Z,9.01
2022-11-12T16:06:18.958Z,9.11
2022-11-12T16:09:03.683Z,9.08
2022-11-12T16:11:50.331Z,9.06
2022-11-12T16:14:35.556Z,9.02
2022-11-12T16:17:25.750Z,8.92
2022-11-12T16:20:21.230Z,8.93
2022-11-12T16:23:05.873Z,8.87
2022-11-12T16:25:50.816Z,8.85
2022-11-12T16:28:35.779Z,8.81
2022-11-12T16:31:21.249Z,8.76
2022-11-12T16:34:06.054Z,8.66
2022-11-12T16:36:50.879Z,8.69
2022-11-12T16:39:35.483Z,8.64
2022-11-12T16:42:20.003Z,8.58
2022-11-12T16:45:05.091Z,8.53
2022-11-12T16:47:52.263Z,8.51
2022-11-12T16:50:37.101Z,8.48
2022-11-12T16:53:21.620Z,8.42
2022-11-12T16:56:12.033Z,8.43
2022-11-12T16:58:56.935Z,8.43
2022-11-12T17:01:44.042Z,8.43
2022-11-12T17:04:28.662Z,8.38
2022-11-12T17:07:13.250Z,8.29
2022-11-12T17:09:57.866Z,8.29
2022-11-12T17:12:43.267Z,8.27
2022-11-12T17:15:28.223Z,8.16
2022-11-12T17:18:13.190Z,8.17
2022-11-12T17:21:07.008Z,8.11
2022-11-12T17:23:51.537Z,8.09
2022-11-12T17:26:36.626Z,8.05
2022-11-12T17:29:21.371Z,8.00
2022-11-12T17:32:06.325Z,7.95
2022-11-12T17:34:51.162Z,7.93
2022-11-12T17:37:35.855Z,7.89
2022-11-12T17:40:20.296Z,7.77
2022-11-12T17:43:04.955Z,7.75
2022-11-12T17:45:53.641Z,7.73
2022-11-12T17:48:38.718Z,7.73
2022-11-12T17:51:25.857Z,7.70
2022-11-12T17:54:10.996Z,7.69
2022-11-12T17:56:55.743Z,7.60
2022-11-12T17:59:40.593Z,7.66
2022-11-12T18:02:25.109Z,7.63
2022-11-12T18:05:09.639Z,7.60
2022-11-12T18:07:54.148Z,7.59
2022-11-12T18:10:39.585Z,7.60
2022-11-12T18:13:24.237Z,7.61
2022-11-12T18:16:15.340Z,7.56
2022-11-12T18:19:00.029Z,7.53
2022-11-12T18:21:44.680Z,7.52
2022-11-12T18:24:29.278Z,7.53
2022-11-12T18:27:14.213Z,7.49
2022-11-12T18:29:58.859Z,7.47
2022-11-12T18:32:43.644Z,7.42
2022-11-12T18:35:29.988Z,7.41
2022-11-12T18:38:14.890Z,7.37
2022-11-12T18:41:04.180Z,7.34
2022-11-12T18:43:48.723Z,7.35
2022-11-12T18:46:33.288Z,7.33
2022-11-12T18:49:17.861Z,7.33
2022-11-12T18:52:02.837Z,7.31
2022-11-12T18:54:47.343Z,7.23
2022-11-12T18:57:32.110Z,7.09
2022-11-12T19:00:17.191Z,6.94
2022-11-12T19:03:01.951Z,7.03
2022-11-12T19:05:47.288Z,7.01
2022-11-12T19:08:32.034Z,6.96
2022-11-12T19:11:21.834Z,6.80
2022-11-12T19:14:07.016Z,6.93
2022-11-12T19:16:51.433Z,6.82
2022-11-12T19:19:36.452Z,6.77
2022-11-12T19:22:21.376Z,6.89
2022-11-12T19:25:06.406Z,6.90
2022-11-12T19:27:51.172Z,6.85
2022-11-12T19:30:35.911Z,6.85
2022-11-12T19:33:20.328Z,6.80
2022-11-12T19:36:06.935Z,6.76
2022-11-12T19:38:56.625Z,6.74
2022-11-12T19:41:41.226Z,6.73
2022-11-12T19:44:26.225Z,6.70
2022-11-12T19:47:11.164Z,6.67
2022-11-12T19:49:55.698Z,6.62
2022-11-12T19:52:40.212Z,6.60
2022-11-12T19:55:25.735Z,6.58
2022-11-12T19:58:10.710Z,6.53
2022-11-12T20:00:55.274Z,6.52
2022-11-12T20:03:40.595Z,6.32
2022-11-12T20:06:27.241Z,6.40
2022-11-12T20:09:11.819Z,6.35
2022-11-12T20:11:56.283Z,6.29
2022-11-12T20:14:40.800Z,6.27
2022-11-12T20:17:25.547Z,6.25
2022-11-12T20:20:10.571Z,6.22
2022-11-12T20:22:55.504Z,6.16
2022-11-12T20:25:40.249Z,6.15
2022-11-12T20:28:25.026Z,6.15
2022-11-12T20:31:12.666Z,6.12
2022-11-12T20:33:57.541Z,6.11
2022-11-12T20:36:42.538Z,6.07
2022-11-12T20:39:27.165Z,6.06
2022-11-12T20:42:11.850Z,6.04
2022-11-12T20:44:56.265Z,5.90
2022-11-12T20:47:40.838Z,6.02
2022-11-12T20:50:25.591Z,5.96
2022-11-12T20:53:10.100Z,5.90
2022-11-12T20:55:55.040Z,5.77
2022-11-12T20:58:40.357Z,5.81
2022-11-12T21:01:26.652Z,5.79
2022-11-12T21:04:12.387Z,5.70
2022-11-12T21:06:59.732Z,5.67
2022-11-12T21:09:48.828Z,5.66
2022-11-12T21:12:33.302Z,5.64
2022-11-12T21:15:18.138Z,5.64
2022-11-12T21:18:03.061Z,5.53
2022-11-12T21:20:47.957Z,5.58
2022-11-12T21:23:34.323Z,5.64
2022-11-12T21:26:20.586Z,5.53
2022-11-12T21:29:07.047Z,5.52
2022-11-12T21:31:51.886Z,5.49
2022-11-12T21:34:36.443Z,5.45
2022-11-12T21:37:21.014Z,5.38
2022-11-12T21:40:06.425Z,5.35
2022-11-12T21:42:51.111Z,5.21
2022-11-12T21:45:35.643Z,5.06
2022-11-12T21:48:20.483Z,5.16
2022-11-12T21:51:11.036Z,5.13
2022-11-12T21:54:02.104Z,4.90
2022-11-12T21:56:46.938Z,4.98
2022-11-12T21:59:31.999Z,4.93
2022-11-12T22:02:16.584Z,4.81
2022-11-12T22:05:01.089Z,4.84
2022-11-12T22:07:45.841Z,4.70
2022-11-12T22:10:30.370Z,4.70
2022-11-12T22:13:30.498Z,4.61
2022-11-12T22:16:20.352Z,4.58
2022-11-12T22:19:05.148Z,4.52
2022-11-12T22:21:49.942Z,4.44
2022-11-12T22:24:34.715Z,4.46
2022-11-12T22:27:19.669Z,4.32
2022-11-12T22:30:04.518Z,4.34
2022-11-12T22:32:49.184Z,4.20
2022-11-12T22:35:34.013Z,4.22
2022-11-12T22:38:19.055Z,4.18
2022-11-12T22:41:05.197Z,4.15
2022-11-12T22:43:51.941Z,3.97
2022-11-12T22:46:37.045Z,3.97
2022-11-12T22:49:21.579Z,4.04
2022-11-12T22:52:06.348Z,4.04
2022-11-12T22:54:51.062Z,3.96
2022-11-12T22:57:35.940Z,3.95
2022-11-12T23:00:29.287Z,3.92
2022-11-12T23:03:14.029Z,3.87
2022-11-12T23:06:00.172Z,3.74
2022-11-12T23:08:45.527Z,3.85
2022-11-12T23:11:30.121Z,3.67
2022-11-12T23:14:15.053Z,3.84
2022-11-12T23:17:00.759Z,3.86
2022-11-12T23:19:45.726Z,3.81
2022-11-12T23:22:30.659Z,3.89
2022-11-12T23:25:15.423Z,3.86
2022-11-12T23:28:00.611Z,3.86
2022-11-12T23:30:50.071Z,3.85
2022-11-12T23:33:34.816Z,3.83
2022-11-12T23:36:20.749Z,3.82
2022-11-12T23:39:05.352Z,3.80
2022-11-12T23:41:50.373Z,3.73
2022-11-12T23:44:34.954Z,3.78
2022-11-12T23:47:20.104Z,3.75
2022-11-12T23:50:05.214Z,3.68
2022-11-12T23:52:50.045Z,3.58
2022-11-12T23:55:38.351Z,3.64
2022-11-12T23:58:22.970Z,3.58
